Manteno, IL (60950)

7:48 AM CST on February 10, 2016 (GMT -0600)
flat farm country | | Change Station
CLOSE
Current Station
Personal Weather Station
Location: Bourbonnais, IL
Elevation: 663 ft
Nearby Weather Stations

Elev 663 ft 41.19 °N, 87.82 °W | Updated 13 seconds ago

Clear
Clear
11.8 °F
Feels Like 1 °F
N
7.4
Wind Variable Wind from NW
Gusts 9.8 mph

Today
High -- | Low -- °F
--% Chance of Precip.
Yesterday
High -- | Low -- °F
Precip. -- in
Pressure 30.04 in
Visibility 10.0 miles
Clouds Scattered Clouds 3500 ft
Windchill 1 °F
Dew Point -13 °F
Humidity 31%
Rainfall 0.00 in
Snow Depth Not available.
6:53 AM 5:18 PM
Waxing Crescent, 5% visible
METAR KIKK 101335Z AUTO 29011G15KT 10SM SCT035 M12/M16 A3004 RMK AO2 T11231165
Pressure 30.04 in
Visibility 10.0 miles
Clouds Scattered Clouds 3500 ft
Windchill 1 °F
Dew Point -13 °F
Humidity 31%
Rainfall 0.00 in
Snow Depth Not available.
6:53 AM 5:18 PM
Waxing Crescent, 5% visible
METAR KIKK 101335Z AUTO 29011G15KT 10SM SCT035 M12/M16 A3004 RMK AO2 T11231165

10-Day Weather Forecast

Almanac

Astronomy

Feb. 10, 2016 Rise Set
Actual Time
Civil Twilight
Nautical Twilight
Astronomical Twilight
Moon
Length of Visible Light
Length of Day
Tomorrow will be .
, % of the Moon is Illuminated

Today's Extremes

State Highs State Lows

Community

WunderPhotos

Upload Photos

1,891,845 photos uploaded!

WunderBlog® & News

Nearby

Air Quality

  Air Quality AQ Index Pollutant
Not available.

Snow Depth

Station Depth Elevation

Earthquake Activity

City Distance Mag. Time & Date
Minimum magnitude displayed is 2.5.

Coastal Water Temperatures

Place Temperature

Stations

Nearby Weather Stations

Station Location Temp. Windchill Dew Point Humidity Wind Precip. Elev Updated Type
                   

Watches & Warnings

There are currently no watches in effect.